sensor_id;sensor_type;location;lat;lon;timestamp;P1;durP1;ratioP1;P2;durP2;ratioP2
13319;SDS011;59599;47.608;12.190;2024-01-30T05:01:34;5.97;;;3.07;;
13319;SDS011;59599;47.608;12.190;2024-01-30T05:04:00;6.47;;;3.20;;
13319;SDS011;59599;47.608;12.190;2024-01-30T05:06:28;5.20;;;3.80;;
13319;SDS011;59599;47.608;12.190;2024-01-30T05:08:54;5.93;;;3.93;;
13319;SDS011;59599;47.608;12.190;2024-01-30T05:11:19;7.87;;;4.90;;
13319;SDS011;59599;47.608;12.190;2024-01-30T05:13:45;9.47;;;5.63;;
13319;SDS011;59599;47.608;12.190;2024-01-30T05:16:11;11.97;;;8.77;;
13319;SDS011;59599;47.608;12.190;2024-01-30T05:18:37;16.30;;;9.00;;
13319;SDS011;59599;47.608;12.190;2024-01-30T05:21:03;11.77;;;7.47;;
13319;SDS011;59599;47.608;12.190;2024-01-30T05:23:29;13.63;;;8.87;;
13319;SDS011;59599;47.608;12.190;2024-01-30T05:25:55;10.90;;;6.37;;
13319;SDS011;59599;47.608;12.190;2024-01-30T05:28:21;8.13;;;5.80;;
13319;SDS011;59599;47.608;12.190;2024-01-30T05:30:47;10.50;;;6.70;;
13319;SDS011;59599;47.608;12.190;2024-01-30T05:33:13;9.03;;;5.73;;
13319;SDS011;59599;47.608;12.190;2024-01-30T05:35:38;13.17;;;6.03;;
13319;SDS011;59599;47.608;12.190;2024-01-30T05:38:04;7.47;;;5.20;;
13319;SDS011;59599;47.608;12.190;2024-01-30T05:40:32;5.83;;;4.50;;
13319;SDS011;59599;47.608;12.190;2024-01-30T05:42:58;7.77;;;4.87;;
13319;SDS011;59599;47.608;12.190;2024-01-30T05:45:26;5.97;;;4.00;;
13319;SDS011;59599;47.608;12.190;2024-01-30T05:47:52;6.83;;;4.23;;
13319;SDS011;59599;47.608;12.190;2024-01-30T05:50:18;7.30;;;4.07;;
13319;SDS011;59599;47.608;12.190;2024-01-30T05:52:44;6.67;;;3.77;;
13319;SDS011;59599;47.608;12.190;2024-01-30T05:55:11;7.90;;;3.83;;
13319;SDS011;59599;47.608;12.190;2024-01-30T05:57:37;7.20;;;4.13;;
13319;SDS011;59599;47.608;12.190;2024-01-30T06:00:04;10.87;;;4.17;;
13319;SDS011;59599;47.608;12.190;2024-01-30T06:02:30;7.23;;;4.57;;
13319;SDS011;59599;47.608;12.190;2024-01-30T06:04:56;6.13;;;4.00;;
13319;SDS011;59599;47.608;12.190;2024-01-30T06:07:22;9.00;;;5.13;;
13319;SDS011;59599;47.608;12.190;2024-01-30T06:09:48;6.57;;;4.53;;
13319;SDS011;59599;47.608;12.190;2024-01-30T06:12:14;8.43;;;4.50;;
13319;SDS011;59599;47.608;12.190;2024-01-30T06:14:40;8.60;;;5.03;;
13319;SDS011;59599;47.608;12.190;2024-01-30T06:17:07;7.03;;;4.60;;
13319;SDS011;59599;47.608;12.190;2024-01-30T06:19:33;6.93;;;4.90;;
13319;SDS011;59599;47.608;12.190;2024-01-30T06:21:59;7.20;;;4.57;;
13319;SDS011;59599;47.608;12.190;2024-01-30T06:24:25;7.20;;;4.67;;
13319;SDS011;59599;47.608;12.190;2024-01-30T06:26:50;10.90;;;4.63;;
13319;SDS011;59599;47.608;12.190;2024-01-30T06:29:16;8.17;;;4.77;;
13319;SDS011;59599;47.608;12.190;2024-01-30T06:31:42;9.23;;;5.20;;
13319;SDS011;59599;47.608;12.190;2024-01-30T06:34:09;9.47;;;5.67;;
13319;SDS011;59599;47.608;12.190;2024-01-30T06:36:36;12.13;;;4.53;;
13319;SDS011;59599;47.608;12.190;2024-01-30T06:39:02;8.40;;;5.37;;
13319;SDS011;59599;47.608;12.190;2024-01-30T06:41:28;7.90;;;5.23;;
13319;SDS011;59599;47.608;12.190;2024-01-30T06:43:53;7.33;;;4.83;;
13319;SDS011;59599;47.608;12.190;2024-01-30T06:46:19;8.23;;;4.83;;
13319;SDS011;59599;47.608;12.190;2024-01-30T06:48:45;7.13;;;5.30;;
13319;SDS011;59599;47.608;12.190;2024-01-30T06:51:11;10.37;;;5.30;;
13319;SDS011;59599;47.608;12.190;2024-01-30T06:53:37;7.57;;;5.27;;
13319;SDS011;59599;47.608;12.190;2024-01-30T06:56:03;8.93;;;5.30;;
13319;SDS011;59599;47.608;12.190;2024-01-30T06:58:29;8.47;;;4.97;;
13319;SDS011;59599;47.608;12.190;2024-01-30T07:00:55;9.63;;;5.50;;
13319;SDS011;59599;47.608;12.190;2024-01-30T07:03:21;9.40;;;5.70;;
13319;SDS011;59599;47.608;12.190;2024-01-30T07:05:47;11.07;;;5.23;;
13319;SDS011;59599;47.608;12.190;2024-01-30T07:08:13;9.60;;;5.87;;
13319;SDS011;59599;47.608;12.190;2024-01-30T07:10:42;6.70;;;4.47;;
13319;SDS011;59599;47.608;12.190;2024-01-30T07:13:10;8.70;;;5.60;;
13319;SDS011;59599;47.608;12.190;2024-01-30T07:15:36;8.67;;;5.80;;
13319;SDS011;59599;47.608;12.190;2024-01-30T07:18:02;9.47;;;5.77;;
13319;SDS011;59599;47.608;12.190;2024-01-30T07:20:29;9.63;;;6.63;;
13319;SDS011;59599;47.608;12.190;2024-01-30T07:22:56;12.30;;;6.60;;
13319;SDS011;59599;47.608;12.190;2024-01-30T07:25:22;10.90;;;5.70;;
13319;SDS011;59599;47.608;12.190;2024-01-30T07:27:51;11.97;;;5.70;;
13319;SDS011;59599;47.608;12.190;2024-01-30T07:30:17;13.87;;;7.07;;
13319;SDS011;59599;47.608;12.190;2024-01-30T07:32:43;11.13;;;7.13;;
13319;SDS011;59599;47.608;12.190;2024-01-30T07:35:09;12.60;;;7.27;;
13319;SDS011;59599;47.608;12.190;2024-01-30T07:37:36;13.00;;;7.17;;
13319;SDS011;59599;47.608;12.190;2024-01-30T07:40:02;16.50;;;8.90;;
13319;SDS011;59599;47.608;12.190;2024-01-30T07:42:28;16.10;;;7.57;;
13319;SDS011;59599;47.608;12.190;2024-01-30T07:44:54;13.73;;;8.37;;
13319;SDS011;59599;47.608;12.190;2024-01-30T07:47:20;15.80;;;7.10;;
13319;SDS011;59599;47.608;12.190;2024-01-30T07:49:46;15.10;;;6.50;;
13319;SDS011;59599;47.608;12.190;2024-01-30T07:52:12;12.40;;;7.07;;
13319;SDS011;59599;47.608;12.190;2024-01-30T07:54:38;18.73;;;11.00;;
13319;SDS011;59599;47.608;12.190;2024-01-30T07:57:04;16.40;;;8.60;;
13319;SDS011;59599;47.608;12.190;2024-01-30T07:59:30;14.00;;;7.37;;
13319;SDS011;59599;47.608;12.190;2024-01-30T08:01:56;12.97;;;6.90;;
13319;SDS011;59599;47.608;12.190;2024-01-30T08:04:22;14.03;;;7.53;;
13319;SDS011;59599;47.608;12.190;2024-01-30T08:06:48;10.90;;;6.17;;
13319;SDS011;59599;47.608;12.190;2024-01-30T08:09:14;11.87;;;6.80;;
13319;SDS011;59599;47.608;12.190;2024-01-30T08:11:40;10.60;;;6.20;;
13319;SDS011;59599;47.608;12.190;2024-01-30T08:14:05;14.23;;;6.77;;
13319;SDS011;59599;47.608;12.190;2024-01-30T08:16:31;9.27;;;5.43;;
13319;SDS011;59599;47.608;12.190;2024-01-30T08:18:57;9.60;;;5.37;;
13319;SDS011;59599;47.608;12.190;2024-01-30T08:21:23;14.43;;;6.30;;
13319;SDS011;59599;47.608;12.190;2024-01-30T08:23:49;9.63;;;6.27;;
13319;SDS011;59599;47.608;12.190;2024-01-30T08:26:14;11.53;;;6.63;;
13319;SDS011;59599;47.608;12.190;2024-01-30T08:28:40;10.53;;;6.20;;
13319;SDS011;59599;47.608;12.190;2024-01-30T08:31:06;12.60;;;6.20;;
13319;SDS011;59599;47.608;12.190;2024-01-30T08:33:32;12.73;;;7.80;;
13319;SDS011;59599;47.608;12.190;2024-01-30T08:35:58;12.87;;;7.13;;
13319;SDS011;59599;47.608;12.190;2024-01-30T08:38:24;12.27;;;7.00;;
13319;SDS011;59599;47.608;12.190;2024-01-30T08:40:49;10.00;;;6.23;;
13319;SDS011;59599;47.608;12.190;2024-01-30T08:43:15;6.93;;;4.67;;
13319;SDS011;59599;47.608;12.190;2024-01-30T08:45:41;9.60;;;4.60;;
13319;SDS011;59599;47.608;12.190;2024-01-30T08:48:07;8.87;;;6.27;;
13319;SDS011;59599;47.608;12.190;2024-01-30T08:50:33;9.73;;;5.83;;
13319;SDS011;59599;47.608;12.190;2024-01-30T08:52:59;8.40;;;5.47;;
13319;SDS011;59599;47.608;12.190;2024-01-30T08:55:25;8.77;;;5.30;;
13319;SDS011;59599;47.608;12.190;2024-01-30T08:57:51;10.17;;;5.40;;
13319;SDS011;59599;47.608;12.190;2024-01-30T09:00:18;9.37;;;6.20;;
13319;SDS011;59599;47.608;12.190;2024-01-30T09:02:43;8.33;;;5.90;;
13319;SDS011;59599;47.608;12.190;2024-01-30T09:05:09;9.93;;;5.77;;
13319;SDS011;59599;47.608;12.190;2024-01-30T09:07:35;9.07;;;7.33;;
13319;SDS011;59599;47.608;12.190;2024-01-30T09:10:01;10.40;;;6.37;;
13319;SDS011;59599;47.608;12.190;2024-01-30T09:12:27;7.60;;;5.67;;
13319;SDS011;59599;47.608;12.190;2024-01-30T09:14:53;7.37;;;4.90;;
13319;SDS011;59599;47.608;12.190;2024-01-30T09:17:20;11.10;;;7.27;;
13319;SDS011;59599;47.608;12.190;2024-01-30T09:19:46;35.13;;;19.13;;
13319;SDS011;59599;47.608;12.190;2024-01-30T09:22:12;19.73;;;11.53;;
13319;SDS011;59599;47.608;12.190;2024-01-30T09:24:37;13.70;;;6.27;;
13319;SDS011;59599;47.608;12.190;2024-01-30T09:27:04;8.10;;;5.30;;
13319;SDS011;59599;47.608;12.190;2024-01-30T09:29:30;7.33;;;4.80;;
13319;SDS011;59599;47.608;12.190;2024-01-30T09:31:56;9.63;;;5.90;;
13319;SDS011;59599;47.608;12.190;2024-01-30T09:34:22;6.57;;;3.83;;
13319;SDS011;59599;47.608;12.190;2024-01-30T09:36:48;6.27;;;4.13;;
13319;SDS011;59599;47.608;12.190;2024-01-30T09:39:14;5.20;;;3.60;;
13319;SDS011;59599;47.608;12.190;2024-01-30T09:41:45;6.23;;;3.30;;
13319;SDS011;59599;47.608;12.190;2024-01-30T09:44:15;5.57;;;3.20;;
13319;SDS011;59599;47.608;12.190;2024-01-30T09:46:41;4.27;;;3.43;;
13319;SDS011;59599;47.608;12.190;2024-01-30T09:49:08;4.23;;;3.10;;
13319;SDS011;59599;47.608;12.190;2024-01-30T09:51:34;4.37;;;3.17;;
13319;SDS011;59599;47.608;12.190;2024-01-30T09:54:01;4.43;;;3.23;;
13319;SDS011;59599;47.608;12.190;2024-01-30T09:56:28;5.43;;;3.00;;
13319;SDS011;59599;47.608;12.190;2024-01-30T09:58:54;4.00;;;3.20;;
13319;SDS011;59599;47.608;12.190;2024-01-30T10:01:20;3.97;;;2.90;;
13319;SDS011;59599;47.608;12.190;2024-01-30T10:03:46;4.73;;;2.80;;
13319;SDS011;59599;47.608;12.190;2024-01-30T10:06:11;6.83;;;3.40;;
13319;SDS011;59599;47.608;12.190;2024-01-30T10:08:37;11.70;;;5.77;;
13319;SDS011;59599;47.608;12.190;2024-01-30T10:11:03;4.03;;;2.77;;
13319;SDS011;59599;47.608;12.190;2024-01-30T10:13:29;3.97;;;2.87;;
13319;SDS011;59599;47.608;12.190;2024-01-30T10:15:55;6.13;;;3.70;;
13319;SDS011;59599;47.608;12.190;2024-01-30T10:18:24;5.97;;;4.00;;
13319;SDS011;59599;47.608;12.190;2024-01-30T10:20:51;4.97;;;3.27;;
13319;SDS011;59599;47.608;12.190;2024-01-30T10:23:17;3.93;;;2.27;;
13319;SDS011;59599;47.608;12.190;2024-01-30T10:25:44;3.03;;;2.43;;
13319;SDS011;59599;47.608;12.190;2024-01-30T10:28:09;5.97;;;2.37;;
13319;SDS011;59599;47.608;12.190;2024-01-30T10:30:35;2.87;;;2.20;;
13319;SDS011;59599;47.608;12.190;2024-01-30T10:33:01;3.27;;;2.47;;
13319;SDS011;59599;47.608;12.190;2024-01-30T10:35:27;4.37;;;2.47;;
13319;SDS011;59599;47.608;12.190;2024-01-30T10:37:53;6.13;;;3.00;;
13319;SDS011;59599;47.608;12.190;2024-01-30T10:40:23;4.87;;;2.83;;
13319;SDS011;59599;47.608;12.190;2024-01-30T10:42:53;4.60;;;2.60;;
13319;SDS011;59599;47.608;12.190;2024-01-30T10:45:20;3.60;;;2.40;;
13319;SDS011;59599;47.608;12.190;2024-01-30T10:47:50;4.23;;;2.43;;
13319;SDS011;59599;47.608;12.190;2024-01-30T10:50:18;3.47;;;2.50;;
13319;SDS011;59599;47.608;12.190;2024-01-30T10:52:44;5.17;;;2.67;;
13319;SDS011;59599;47.608;12.190;2024-01-30T10:55:11;2.60;;;1.97;;
13319;SDS011;59599;47.608;12.190;2024-01-30T10:57:38;2.63;;;2.27;;
13319;SDS011;59599;47.608;12.190;2024-01-30T11:00:05;3.20;;;2.23;;
13319;SDS011;59599;47.608;12.190;2024-01-30T11:02:37;2.53;;;1.90;;
13319;SDS011;59599;47.608;12.190;2024-01-30T11:05:04;2.73;;;1.90;;
13319;SDS011;59599;47.608;12.190;2024-01-30T11:07:30;3.07;;;2.07;;
13319;SDS011;59599;47.608;12.190;2024-01-30T11:10:00;4.87;;;2.10;;
13319;SDS011;59599;47.608;12.190;2024-01-30T11:12:28;2.40;;;1.97;;
13319;SDS011;59599;47.608;12.190;2024-01-30T11:17:44;3.67;;;2.53;;
13319;SDS011;59599;47.608;12.190;2024-01-30T11:22:45;3.20;;;2.07;;
13319;SDS011;59599;47.608;12.190;2024-01-30T11:25:15;4.27;;;2.10;;
13319;SDS011;59599;47.608;12.190;2024-01-30T11:27:42;4.63;;;2.00;;
13319;SDS011;59599;47.608;12.190;2024-01-30T11:30:09;3.50;;;1.97;;
13319;SDS011;59599;47.608;12.190;2024-01-30T11:32:35;2.00;;;1.60;;
13319;SDS011;59599;47.608;12.190;2024-01-30T11:35:05;4.73;;;2.47;;
13319;SDS011;59599;47.608;12.190;2024-01-30T11:37:31;4.30;;;2.83;;
13319;SDS011;59599;47.608;12.190;2024-01-30T11:39:57;5.37;;;2.20;;
13319;SDS011;59599;47.608;12.190;2024-01-30T11:42:24;4.53;;;2.00;;
13319;SDS011;59599;47.608;12.190;2024-01-30T11:44:50;3.47;;;2.13;;
13319;SDS011;59599;47.608;12.190;2024-01-30T11:47:16;3.63;;;1.80;;
13319;SDS011;59599;47.608;12.190;2024-01-30T11:49:43;3.10;;;2.00;;
13319;SDS011;59599;47.608;12.190;2024-01-30T11:52:09;3.33;;;2.50;;
13319;SDS011;59599;47.608;12.190;2024-01-30T11:54:35;5.83;;;2.30;;
13319;SDS011;59599;47.608;12.190;2024-01-30T11:57:01;2.70;;;1.77;;
13319;SDS011;59599;47.608;12.190;2024-01-30T11:59:26;3.23;;;1.80;;
13319;SDS011;59599;47.608;12.190;2024-01-30T12:01:52;3.20;;;2.10;;
13319;SDS011;59599;47.608;12.190;2024-01-30T12:04:18;4.77;;;1.90;;
13319;SDS011;59599;47.608;12.190;2024-01-30T12:06:44;2.80;;;1.80;;
13319;SDS011;59599;47.608;12.190;2024-01-30T12:09:11;3.27;;;1.50;;
13319;SDS011;59599;47.608;12.190;2024-01-30T12:11:47;3.60;;;1.70;;
13319;SDS011;59599;47.608;12.190;2024-01-30T12:14:15;2.07;;;1.50;;
13319;SDS011;59599;47.608;12.190;2024-01-30T12:16:42;2.30;;;1.57;;
13319;SDS011;59599;47.608;12.190;2024-01-30T12:19:08;5.77;;;2.00;;
13319;SDS011;59599;47.608;12.190;2024-01-30T12:21:34;1.73;;;1.30;;
13319;SDS011;59599;47.608;12.190;2024-01-30T12:24:00;2.23;;;1.30;;
13319;SDS011;59599;47.608;12.190;2024-01-30T12:26:26;2.33;;;1.83;;
13319;SDS011;59599;47.608;12.190;2024-01-30T12:28:55;2.57;;;1.77;;
13319;SDS011;59599;47.608;12.190;2024-01-30T12:31:31;1.90;;;1.53;;
13319;SDS011;59599;47.608;12.190;2024-01-30T12:33:59;1.70;;;1.50;;
13319;SDS011;59599;47.608;12.190;2024-01-30T12:36:24;1.90;;;1.40;;
13319;SDS011;59599;47.608;12.190;2024-01-30T12:38:51;1.97;;;1.43;;
13319;SDS011;59599;47.608;12.190;2024-01-30T12:41:17;3.40;;;1.80;;
13319;SDS011;59599;47.608;12.190;2024-01-30T12:43:43;3.43;;;1.90;;
13319;SDS011;59599;47.608;12.190;2024-01-30T12:46:09;4.80;;;1.53;;
13319;SDS011;59599;47.608;12.190;2024-01-30T12:48:35;2.27;;;1.50;;
13319;SDS011;59599;47.608;12.190;2024-01-30T12:51:01;2.80;;;1.50;;
13319;SDS011;59599;47.608;12.190;2024-01-30T12:53:27;2.67;;;1.73;;
13319;SDS011;59599;47.608;12.190;2024-01-30T12:55:53;4.07;;;1.63;;
13319;SDS011;59599;47.608;12.190;2024-01-30T12:58:19;3.90;;;1.73;;
13319;SDS011;59599;47.608;12.190;2024-01-30T13:00:45;2.50;;;1.60;;
13319;SDS011;59599;47.608;12.190;2024-01-30T13:03:12;4.83;;;2.00;;
13319;SDS011;59599;47.608;12.190;2024-01-30T13:05:38;1.70;;;1.47;;
13319;SDS011;59599;47.608;12.190;2024-01-30T13:08:04;2.17;;;1.63;;
13319;SDS011;59599;47.608;12.190;2024-01-30T13:10:30;5.80;;;2.17;;
13319;SDS011;59599;47.608;12.190;2024-01-30T13:12:56;4.33;;;1.90;;
13319;SDS011;59599;47.608;12.190;2024-01-30T13:15:22;1.80;;;1.47;;
13319;SDS011;59599;47.608;12.190;2024-01-30T13:17:48;5.17;;;2.10;;
13319;SDS011;59599;47.608;12.190;2024-01-30T13:20:14;2.43;;;1.33;;
13319;SDS011;59599;47.608;12.190;2024-01-30T13:22:46;3.00;;;1.63;;
13319;SDS011;59599;47.608;12.190;2024-01-30T13:25:13;4.27;;;2.03;;
13319;SDS011;59599;47.608;12.190;2024-01-30T13:27:39;4.33;;;1.90;;
13319;SDS011;59599;47.608;12.190;2024-01-30T13:30:04;3.03;;;1.90;;
13319;SDS011;59599;47.608;12.190;2024-01-30T13:32:31;4.23;;;2.20;;
13319;SDS011;59599;47.608;12.190;2024-01-30T13:34:56;3.10;;;2.10;;
13319;SDS011;59599;47.608;12.190;2024-01-30T13:37:23;7.97;;;4.60;;
13319;SDS011;59599;47.608;12.190;2024-01-30T13:39:50;3.73;;;2.50;;
13319;SDS011;59599;47.608;12.190;2024-01-30T13:42:16;2.90;;;1.60;;
13319;SDS011;59599;47.608;12.190;2024-01-30T13:44:42;3.05;;;1.92;;
13319;SDS011;59599;47.608;12.190;2024-01-30T13:47:11;3.70;;;1.90;;
13319;SDS011;59599;47.608;12.190;2024-01-30T13:49:36;3.78;;;1.58;;
13319;SDS011;59599;47.608;12.190;2024-01-30T13:52:02;2.97;;;1.65;;
13319;SDS011;59599;47.608;12.190;2024-01-30T13:54:29;4.53;;;1.30;;
13319;SDS011;59599;47.608;12.190;2024-01-30T13:56:55;2.42;;;1.17;;
13319;SDS011;59599;47.608;12.190;2024-01-30T13:59:21;1.85;;;1.40;;
13319;SDS011;59599;47.608;12.190;2024-01-30T14:01:50;2.05;;;1.70;;
13319;SDS011;59599;47.608;12.190;2024-01-30T14:04:16;2.30;;;1.80;;
13319;SDS011;59599;47.608;12.190;2024-01-30T14:06:42;2.53;;;1.98;;
13319;SDS011;59599;47.608;12.190;2024-01-30T14:09:07;3.92;;;1.92;;
13319;SDS011;59599;47.608;12.190;2024-01-30T14:11:33;2.85;;;2.42;;
13319;SDS011;59599;47.608;12.190;2024-01-30T14:13:59;2.63;;;2.20;;
13319;SDS011;59599;47.608;12.190;2024-01-30T14:16:25;3.03;;;1.70;;
13319;SDS011;59599;47.608;12.190;2024-01-30T14:18:51;5.45;;;2.05;;
13319;SDS011;59599;47.608;12.190;2024-01-30T14:21:17;6.07;;;1.95;;
13319;SDS011;59599;47.608;12.190;2024-01-30T14:23:43;3.58;;;1.60;;
13319;SDS011;59599;47.608;12.190;2024-01-30T14:26:09;4.65;;;1.73;;
13319;SDS011;59599;47.608;12.190;2024-01-30T14:28:35;2.22;;;1.73;;
13319;SDS011;59599;47.608;12.190;2024-01-30T14:31:01;6.47;;;2.58;;
13319;SDS011;59599;47.608;12.190;2024-01-30T14:33:26;7.68;;;4.10;;
13319;SDS011;59599;47.608;12.190;2024-01-30T14:35:52;5.65;;;2.92;;
13319;SDS011;59599;47.608;12.190;2024-01-30T14:38:18;6.63;;;3.38;;
13319;SDS011;59599;47.608;12.190;2024-01-30T14:40:43;4.55;;;3.20;;
13319;SDS011;59599;47.608;12.190;2024-01-30T14:43:10;8.50;;;3.80;;
13319;SDS011;59599;47.608;12.190;2024-01-30T14:45:36;6.10;;;3.70;;
13319;SDS011;59599;47.608;12.190;2024-01-30T14:48:02;5.93;;;3.25;;
13319;SDS011;59599;47.608;12.190;2024-01-30T14:50:28;4.55;;;2.58;;
13319;SDS011;59599;47.608;12.190;2024-01-30T14:52:54;10.98;;;2.35;;
13319;SDS011;59599;47.608;12.190;2024-01-30T14:55:19;5.28;;;2.70;;
13319;SDS011;59599;47.608;12.190;2024-01-30T14:57:45;14.30;;;3.75;;
13319;SDS011;59599;47.608;12.190;2024-01-30T15:00:11;6.78;;;2.78;;
13319;SDS011;59599;47.608;12.190;2024-01-30T15:02:39;4.93;;;2.90;;
13319;SDS011;59599;47.608;12.190;2024-01-30T15:05:04;6.75;;;2.90;;
13319;SDS011;59599;47.608;12.190;2024-01-30T15:07:30;9.05;;;2.78;;
13319;SDS011;59599;47.608;12.190;2024-01-30T15:09:56;11.05;;;3.60;;
13319;SDS011;59599;47.608;12.190;2024-01-30T15:12:22;4.57;;;2.90;;
13319;SDS011;59599;47.608;12.190;2024-01-30T15:14:48;3.85;;;2.30;;
13319;SDS011;59599;47.608;12.190;2024-01-30T15:17:19;13.02;;;3.22;;
13319;SDS011;59599;47.608;12.190;2024-01-30T15:19:47;13.98;;;6.68;;
13319;SDS011;59599;47.608;12.190;2024-01-30T15:22:13;10.93;;;3.53;;
13319;SDS011;59599;47.608;12.190;2024-01-30T15:24:39;17.00;;;2.95;;
13319;SDS011;59599;47.608;12.190;2024-01-30T15:27:05;3.92;;;2.58;;
13319;SDS011;59599;47.608;12.190;2024-01-30T15:29:31;6.95;;;3.35;;
13319;SDS011;59599;47.608;12.190;2024-01-30T15:31:57;7.43;;;3.10;;
13319;SDS011;59599;47.608;12.190;2024-01-30T15:34:23;7.47;;;3.60;;
13319;SDS011;59599;47.608;12.190;2024-01-30T15:36:49;13.00;;;3.50;;
13319;SDS011;59599;47.608;12.190;2024-01-30T15:39:15;9.00;;;3.77;;
13319;SDS011;59599;47.608;12.190;2024-01-30T15:41:42;9.80;;;3.93;;
13319;SDS011;59599;47.608;12.190;2024-01-30T15:44:08;6.83;;;3.80;;
13319;SDS011;59599;47.608;12.190;2024-01-30T15:46:34;6.10;;;3.37;;
13319;SDS011;59599;47.608;12.190;2024-01-30T15:49:00;14.67;;;4.90;;
13319;SDS011;59599;47.608;12.190;2024-01-30T15:51:28;13.87;;;5.37;;
13319;SDS011;59599;47.608;12.190;2024-01-30T15:53:53;8.73;;;4.73;;
13319;SDS011;59599;47.608;12.190;2024-01-30T15:56:19;7.53;;;4.83;;
13319;SDS011;59599;47.608;12.190;2024-01-30T15:58:45;6.93;;;4.50;;
13319;SDS011;59599;47.608;12.190;2024-01-30T16:01:14;12.23;;;3.90;;
13319;SDS011;59599;47.608;12.190;2024-01-30T16:03:41;6.27;;;3.20;;
13319;SDS011;59599;47.608;12.190;2024-01-30T16:06:09;7.40;;;3.47;;
13319;SDS011;59599;47.608;12.190;2024-01-30T16:08:35;11.43;;;3.83;;
13319;SDS011;59599;47.608;12.190;2024-01-30T16:11:01;9.67;;;4.40;;
13319;SDS011;59599;47.608;12.190;2024-01-30T16:13:27;10.50;;;4.10;;
13319;SDS011;59599;47.608;12.190;2024-01-30T16:15:54;9.53;;;3.87;;
13319;SDS011;59599;47.608;12.190;2024-01-30T16:18:20;21.60;;;5.10;;
13319;SDS011;59599;47.608;12.190;2024-01-30T16:20:46;22.63;;;5.70;;
13319;SDS011;59599;47.608;12.190;2024-01-30T16:23:11;16.80;;;6.43;;
13319;SDS011;59599;47.608;12.190;2024-01-30T16:25:37;13.93;;;5.53;;
13319;SDS011;59599;47.608;12.190;2024-01-30T16:28:03;17.20;;;6.30;;
13319;SDS011;59599;47.608;12.190;2024-01-30T16:30:29;22.10;;;8.67;;
13319;SDS011;59599;47.608;12.190;2024-01-30T16:32:55;14.33;;;8.67;;
13319;SDS011;59599;47.608;12.190;2024-01-30T16:35:21;18.63;;;9.80;;
13319;SDS011;59599;47.608;12.190;2024-01-30T16:37:46;19.97;;;9.50;;
13319;SDS011;59599;47.608;12.190;2024-01-30T16:40:12;18.97;;;10.50;;
13319;SDS011;59599;47.608;12.190;2024-01-30T16:42:38;28.67;;;15.20;;
13319;SDS011;59599;47.608;12.190;2024-01-30T16:45:04;22.13;;;13.53;;
13319;SDS011;59599;47.608;12.190;2024-01-30T16:47:30;27.03;;;13.43;;
13319;SDS011;59599;47.608;12.190;2024-01-30T16:49:56;17.37;;;10.43;;
13319;SDS011;59599;47.608;12.190;2024-01-30T16:52:22;17.50;;;10.57;;
13319;SDS011;59599;47.608;12.190;2024-01-30T16:54:48;17.50;;;10.03;;
13319;SDS011;59599;47.608;12.190;2024-01-30T16:57:14;18.80;;;10.50;;
13319;SDS011;59599;47.608;12.190;2024-01-30T16:59:40;22.90;;;11.70;;
13319;SDS011;59599;47.608;12.190;2024-01-30T17:02:06;23.93;;;14.40;;
13319;SDS011;59599;47.608;12.190;2024-01-30T17:04:33;24.47;;;12.23;;
13319;SDS011;59599;47.608;12.190;2024-01-30T17:06:59;16.13;;;9.47;;
13319;SDS011;59599;47.608;12.190;2024-01-30T17:09:27;20.53;;;8.00;;
13319;SDS011;59599;47.608;12.190;2024-01-30T17:11:53;15.00;;;8.90;;
13319;SDS011;59599;47.608;12.190;2024-01-30T17:14:19;17.20;;;8.70;;
13319;SDS011;59599;47.608;12.190;2024-01-30T17:16:45;12.70;;;8.60;;
13319;SDS011;59599;47.608;12.190;2024-01-30T17:19:11;17.57;;;9.10;;
13319;SDS011;59599;47.608;12.190;2024-01-30T17:21:37;22.63;;;9.87;;
13319;SDS011;59599;47.608;12.190;2024-01-30T17:24:03;18.30;;;10.10;;
13319;SDS011;59599;47.608;12.190;2024-01-30T17:26:29;20.13;;;11.20;;
13319;SDS011;59599;47.608;12.190;2024-01-30T17:28:55;21.70;;;12.30;;
13319;SDS011;59599;47.608;12.190;2024-01-30T17:31:21;22.43;;;13.70;;
13319;SDS011;59599;47.608;12.190;2024-01-30T17:33:47;28.40;;;16.20;;
13319;SDS011;59599;47.608;12.190;2024-01-30T17:36:13;27.20;;;17.27;;
13319;SDS011;59599;47.608;12.190;2024-01-30T17:38:40;24.90;;;13.17;;
13319;SDS011;59599;47.608;12.190;2024-01-30T17:41:06;21.40;;;13.37;;
13319;SDS011;59599;47.608;12.190;2024-01-30T17:43:32;18.87;;;10.33;;
13319;SDS011;59599;47.608;12.190;2024-01-30T17:45:57;17.17;;;10.57;;
13319;SDS011;59599;47.608;12.190;2024-01-30T17:48:24;16.67;;;9.67;;
13319;SDS011;59599;47.608;12.190;2024-01-30T17:50:50;16.27;;;9.23;;
13319;SDS011;59599;47.608;12.190;2024-01-30T17:53:16;13.97;;;9.00;;
13319;SDS011;59599;47.608;12.190;2024-01-30T17:55:42;14.17;;;8.80;;
13319;SDS011;59599;47.608;12.190;2024-01-30T17:58:07;16.53;;;8.70;;
13319;SDS011;59599;47.608;12.190;2024-01-30T18:00:34;15.03;;;9.30;;
13319;SDS011;59599;47.608;12.190;2024-01-30T18:03:00;15.73;;;8.60;;
13319;SDS011;59599;47.608;12.190;2024-01-30T18:05:26;13.30;;;8.80;;
13319;SDS011;59599;47.608;12.190;2024-01-30T18:07:52;14.40;;;9.20;;
13319;SDS011;59599;47.608;12.190;2024-01-30T18:10:18;15.20;;;9.17;;
13319;SDS011;59599;47.608;12.190;2024-01-30T18:12:44;17.67;;;10.37;;
13319;SDS011;59599;47.608;12.190;2024-01-30T18:15:10;13.67;;;9.60;;
13319;SDS011;59599;47.608;12.190;2024-01-30T18:17:36;15.27;;;9.97;;
13319;SDS011;59599;47.608;12.190;2024-01-30T18:20:02;15.27;;;10.20;;
13319;SDS011;59599;47.608;12.190;2024-01-30T18:22:30;16.43;;;9.20;;
13319;SDS011;59599;47.608;12.190;2024-01-30T18:24:56;13.93;;;8.47;;
13319;SDS011;59599;47.608;12.190;2024-01-30T18:27:22;12.37;;;7.57;;
13319;SDS011;59599;47.608;12.190;2024-01-30T18:29:48;25.23;;;13.73;;
13319;SDS011;59599;47.608;12.190;2024-01-30T18:32:14;24.17;;;14.17;;
13319;SDS011;59599;47.608;12.190;2024-01-30T18:34:40;25.83;;;12.23;;
13319;SDS011;59599;47.608;12.190;2024-01-30T18:37:06;20.40;;;10.80;;
13319;SDS011;59599;47.608;12.190;2024-01-30T18:39:33;17.97;;;10.87;;
13319;SDS011;59599;47.608;12.190;2024-01-30T18:41:59;18.53;;;10.53;;
13319;SDS011;59599;47.608;12.190;2024-01-30T18:44:25;18.07;;;10.50;;
13319;SDS011;59599;47.608;12.190;2024-01-30T18:46:51;15.83;;;10.07;;
13319;SDS011;59599;47.608;12.190;2024-01-30T18:49:16;17.67;;;11.47;;
13319;SDS011;59599;47.608;12.190;2024-01-30T18:51:42;25.03;;;14.07;;
13319;SDS011;59599;47.608;12.190;2024-01-30T18:54:08;22.13;;;13.97;;
13319;SDS011;59599;47.608;12.190;2024-01-30T18:56:34;23.93;;;14.17;;
13319;SDS011;59599;47.608;12.190;2024-01-30T18:59:00;35.47;;;25.47;;
13319;SDS011;59599;47.608;12.190;2024-01-30T19:01:26;38.53;;;24.93;;
13319;SDS011;59599;47.608;12.190;2024-01-30T19:03:53;48.17;;;24.93;;
13319;SDS011;59599;47.608;12.190;2024-01-30T19:06:19;24.93;;;16.13;;
13319;SDS011;59599;47.608;12.190;2024-01-30T19:08:45;25.33;;;14.10;;
13319;SDS011;59599;47.608;12.190;2024-01-30T19:11:18;28.53;;;16.53;;
13319;SDS011;59599;47.608;12.190;2024-01-30T19:13:44;23.93;;;15.70;;
13319;SDS011;59599;47.608;12.190;2024-01-30T19:16:10;22.90;;;14.20;;
13319;SDS011;59599;47.608;12.190;2024-01-30T19:18:35;15.97;;;10.47;;
13319;SDS011;59599;47.608;12.190;2024-01-30T19:21:01;13.97;;;8.63;;
13319;SDS011;59599;47.608;12.190;2024-01-30T19:23:28;12.67;;;8.40;;
13319;SDS011;59599;47.608;12.190;2024-01-30T19:25:54;18.43;;;9.87;;
13319;SDS011;59599;47.608;12.190;2024-01-30T19:28:19;13.37;;;8.47;;